Time;durP1;ratioP1;P1;durP2;ratioP2;P2;SDS_P1;SDS_P2;PMS_P1;PMS_P2;Temp;Humidity;BMP_temperature;BMP_pressure;BME280_temperature;BME280_humidity;BME280_pressure;Samples;Min_cycle;Max_cycle;Signal;HPM_P1;HPM_P2
2021/04/11 00:01:07;;;;;;;6.70;4.57;;;8.70;99.90;;;;;;4751017;30;20059;-79
2021/04/11 00:03:38;;;;;;;6.53;4.75;;;8.70;99.90;;;;;;4750625;30;20079;-78
2021/04/11 00:06:09;;;;;;;7.47;4.90;;;8.70;99.90;;;;;;4752705;30;20509;-78
2021/04/11 00:08:41;;;;;;;8.05;5.18;;;8.70;99.90;;;;;;4735380;30;20723;-78
2021/04/11 00:11:12;;;;;;;8.13;4.85;;;8.60;99.90;;;;;;4752921;30;20051;-80
2021/04/11 00:13:44;;;;;;;6.00;4.00;;;8.70;99.90;;;;;;4751455;30;20615;-80
2021/04/11 00:16:10;;;;;;;6.75;4.75;;;8.70;99.90;;;;;;4737056;30;20472;-80
2021/04/11 00:18:41;;;;;;;6.30;4.97;;;8.70;99.90;;;;;;4750062;30;20531;-75
2021/04/11 00:21:07;;;;;;;7.72;5.15;;;8.60;99.90;;;;;;4751476;30;20127;-75
2021/04/11 00:23:39;;;;;;;7.43;5.25;;;8.60;99.90;;;;;;4751399;30;20048;-76
2021/04/11 00:26:06;;;;;;;6.57;4.43;;;8.60;99.90;;;;;;4751637;30;20130;-75
2021/04/11 00:28:32;;;;;;;8.93;5.63;;;8.50;99.90;;;;;;4739821;30;20143;-78
2021/04/11 00:31:04;;;;;;;7.07;5.07;;;8.60;99.90;;;;;;4764051;30;20162;-75
2021/04/11 00:33:36;;;;;;;6.50;4.15;;;8.60;99.90;;;;;;4748136;30;20139;-75
2021/04/11 00:36:07;;;;;;;10.93;4.88;;;8.60;99.90;;;;;;4753383;30;20138;-77
2021/04/11 00:38:39;;;;;;;8.18;4.97;;;8.60;99.90;;;;;;4735880;30;20603;-76
2021/04/11 00:41:15;;;;;;;7.20;4.82;;;8.60;99.90;;;;;;4753212;30;20138;-74
2021/04/11 00:43:47;;;;;;;6.68;4.93;;;8.60;99.90;;;;;;4760002;30;20062;-78
2021/04/11 00:46:45;;;;;;;9.27;5.03;;;8.60;99.90;;;;;;4767563;30;20285;-75
2021/04/11 00:49:37;;;;;;;7.35;4.30;;;8.50;99.90;;;;;;4754050;30;20054;-75
2021/04/11 00:52:06;;;;;;;5.80;4.43;;;8.50;99.90;;;;;;4769755;30;20109;-75
2021/04/11 00:54:33;;;;;;;5.70;4.47;;;8.50;99.90;;;;;;4769885;30;20043;-76
2021/04/11 00:57:07;;;;;;;5.20;4.57;;;8.50;99.90;;;;;;4771176;30;20066;-77
2021/04/11 00:59:34;;;;;;;7.85;4.22;;;8.60;99.90;;;;;;4769644;30;20142;-76
2021/04/11 01:02:01;;;;;;;6.25;4.45;;;8.60;99.90;;;;;;4753870;30;20116;-75
2021/04/11 01:04:33;;;;;;;7.90;4.90;;;8.60;99.90;;;;;;4755107;30;20138;-77
2021/04/11 01:07:10;;;;;;;8.73;5.30;;;8.60;99.90;;;;;;4755657;30;20105;-74
2021/04/11 01:09:46;;;;;;;9.55;4.68;;;8.60;99.90;;;;;;4754818;30;20102;-74
2021/04/11 01:12:23;;;;;;;9.20;5.43;;;8.60;99.90;;;;;;4769523;30;20044;-77
2021/04/11 01:14:50;;;;;;;6.82;4.55;;;8.60;99.90;;;;;;4754741;30;20089;-77
2021/04/11 01:17:27;;;;;;;8.52;5.03;;;8.60;99.90;;;;;;4769914;30;20048;-77
2021/04/11 01:19:57;;;;;;;7.50;3.60;;;8.60;99.90;;;;;;4769376;30;20048;-77
2021/04/11 01:22:47;;;;;;;6.25;3.58;;;8.70;99.90;;;;;;4769035;30;20063;-76
2021/04/11 01:25:23;;;;;;;4.57;3.20;;;8.70;99.90;;;;;;4769147;30;20060;-77
2021/04/11 01:27:56;;;;;;;4.60;2.75;;;8.70;99.90;;;;;;4768750;30;20055;-77
2021/04/11 01:30:28;;;;;;;6.32;3.35;;;8.70;99.90;;;;;;4768993;30;20529;-77
2021/04/11 01:33:14;;;;;;;5.05;3.72;;;8.80;99.90;;;;;;4753904;30;20055;-77
2021/04/11 01:35:50;;;;;;;5.80;3.28;;;8.80;99.90;;;;;;4770479;30;20079;-77
2021/04/11 01:38:17;;;;;;;6.25;3.80;;;8.80;99.90;;;;;;4768140;30;20048;-79
2021/04/11 01:41:12;;;;;;;4.63;3.00;;;8.80;99.90;;;;;;4769595;30;20058;-77
2021/04/11 01:43:40;;;;;;;5.00;3.10;;;8.70;99.90;;;;;;4754871;30;20055;-77
2021/04/11 01:46:08;;;;;;;7.03;3.70;;;8.70;99.90;;;;;;4770124;30;20125;-78
2021/04/11 01:48:41;;;;;;;7.72;3.60;;;8.80;99.90;;;;;;4769930;30;20051;-77
2021/04/11 01:51:15;;;;;;;6.30;3.08;;;8.80;99.90;;;;;;4755597;30;20054;-77
2021/04/11 01:53:43;;;;;;;5.25;2.83;;;8.70;99.90;;;;;;4755299;30;20362;-78
2021/04/11 01:56:17;;;;;;;3.70;2.72;;;8.70;99.90;;;;;;4769106;30;20044;-78
2021/04/11 01:58:55;;;;;;;5.55;3.33;;;8.80;99.90;;;;;;4768831;30;20078;-78
2021/04/11 02:01:32;;;;;;;3.28;2.83;;;8.80;99.90;;;;;;4754080;30;20148;-77
2021/04/11 02:04:05;;;;;;;4.35;3.20;;;8.80;99.90;;;;;;4754187;30;20143;-78
2021/04/11 02:06:44;;;;;;;5.68;3.67;;;8.70;99.90;;;;;;4768452;30;20067;-78
2021/04/11 02:09:29;;;;;;;6.72;4.28;;;8.70;99.90;;;;;;4766217;30;20425;-77
2021/04/11 02:12:06;;;;;;;6.30;4.10;;;8.60;99.90;;;;;;4767990;30;20052;-78
2021/04/11 02:14:38;;;;;;;6.90;3.75;;;8.50;99.90;;;;;;4753429;30;20058;-77
2021/04/11 02:17:12;;;;;;;5.80;3.88;;;8.40;99.90;;;;;;4768477;30;20134;-78
2021/04/11 02:19:44;;;;;;;5.20;3.30;;;8.30;99.90;;;;;;4753079;30;20109;-78
2021/04/11 02:22:23;;;;;;;6.32;2.75;;;8.30;99.90;;;;;;4767529;30;20593;-78
2021/04/11 02:24:51;;;;;;;4.80;3.28;;;8.30;99.90;;;;;;4753896;30;20051;-77
2021/04/11 02:27:24;;;;;;;5.55;3.58;;;8.30;99.90;;;;;;4751015;30;20052;-79
2021/04/11 02:29:55;;;;;;;5.53;3.00;;;8.30;99.90;;;;;;4752713;30;20154;-78
2021/04/11 02:32:26;;;;;;;5.78;3.10;;;8.30;99.90;;;;;;4753347;30;20056;-77
2021/04/11 02:35:02;;;;;;;5.95;3.38;;;8.20;99.90;;;;;;4753171;30;20070;-79
2021/04/11 02:37:36;;;;;;;6.95;3.30;;;8.20;99.90;;;;;;4753809;30;20063;-78
2021/04/11 02:40:15;;;;;;;8.02;4.05;;;8.10;99.90;;;;;;4753124;30;20492;-80
2021/04/11 02:42:47;;;;;;;6.07;3.42;;;8.10;99.90;;;;;;4753036;30;20478;-77
2021/04/11 02:45:26;;;;;;;6.68;3.50;;;8.10;99.90;;;;;;4767674;30;20044;-80
2021/04/11 02:48:01;;;;;;;7.18;3.40;;;8.10;99.90;;;;;;4767677;30;20542;-77
2021/04/11 02:50:36;;;;;;;4.30;2.88;;;8.10;99.90;;;;;;4752746;30;20429;-77
2021/04/11 02:53:12;;;;;;;4.55;2.35;;;8.00;99.90;;;;;;4753319;30;20050;-77
2021/04/11 02:55:46;;;;;;;4.70;3.10;;;7.90;99.90;;;;;;4767507;30;20071;-78
2021/04/11 02:58:20;;;;;;;3.28;2.80;;;7.70;99.90;;;;;;4752590;30;20055;-79
2021/04/11 03:00:57;;;;;;;4.25;2.78;;;7.60;99.90;;;;;;4752935;30;20056;-79
2021/04/11 03:03:25;;;;;;;2.90;2.30;;;7.60;99.90;;;;;;4767434;30;20067;-78
2021/04/11 03:05:55;;;;;;;3.85;2.50;;;7.60;99.90;;;;;;4753228;30;20636;-76
2021/04/11 03:08:32;;;;;;;2.42;1.98;;;7.60;99.90;;;;;;4766893;30;20055;-75
2021/04/11 03:11:18;;;;;;;4.32;2.10;;;7.60;99.90;;;;;;4767842;30;20439;-75
2021/04/11 03:13:50;;;;;;;3.53;2.35;;;7.60;99.90;;;;;;4753373;30;20584;-76
2021/04/11 03:16:24;;;;;;;2.97;2.20;;;7.60;99.90;;;;;;4768528;30;20104;-75
2021/04/11 03:18:57;;;;;;;3.55;2.78;;;7.70;99.90;;;;;;4752375;30;20044;-74
2021/04/11 03:21:26;;;;;;;3.20;2.45;;;7.70;99.90;;;;;;4753229;30;20542;-75
2021/04/11 03:23:58;;;;;;;2.95;2.25;;;7.70;99.90;;;;;;4754655;30;20051;-75
2021/04/11 03:26:43;;;;;;;4.35;2.50;;;7.70;99.90;;;;;;4772116;30;20062;-75
2021/04/11 03:29:52;;;;;;;3.78;2.70;;;7.60;99.90;;;;;;4771107;30;20066;-75
2021/04/11 03:32:25;;;;;;;2.80;2.10;;;7.50;99.90;;;;;;4756255;30;20112;-77
2021/04/11 03:34:55;;;;;;;3.45;2.17;;;7.50;99.90;;;;;;4756342;30;20056;-77
2021/04/11 03:37:30;;;;;;;3.67;2.47;;;7.50;99.90;;;;;;4771512;30;20616;-77
2021/04/11 03:40:08;;;;;;;4.55;2.42;;;7.40;99.90;;;;;;4756093;30;20133;-79
2021/04/11 03:42:47;;;;;;;4.53;2.40;;;7.40;99.90;;;;;;4755718;30;20055;-76
2021/04/11 03:45:22;;;;;;;3.67;2.38;;;7.40;99.90;;;;;;4756451;30;20082;-74
2021/04/11 03:48:17;;;;;;;4.20;2.45;;;7.50;99.90;;;;;;4756130;30;20071;-74
2021/04/11 03:50:58;;;;;;;3.92;2.20;;;7.50;99.90;;;;;;4770920;30;20047;-74
2021/04/11 03:54:03;;;;;;;2.85;2.45;;;7.50;99.90;;;;;;4755793;30;20481;-75
2021/04/11 03:56:35;;;;;;;3.30;2.45;;;7.60;99.90;;;;;;4756697;30;20052;-74
2021/04/11 03:59:11;;;;;;;4.55;2.53;;;7.60;99.90;;;;;;4770714;30;20047;-75
2021/04/11 04:01:47;;;;;;;5.30;2.22;;;7.50;99.90;;;;;;4755873;30;20051;-77
2021/04/11 04:04:25;;;;;;;3.55;2.53;;;7.50;99.90;;;;;;4756274;30;20044;-76
2021/04/11 04:07:07;;;;;;;4.63;2.53;;;7.50;99.90;;;;;;4756702;30;20083;-74
2021/04/11 04:09:47;;;;;;;4.60;2.80;;;7.50;99.90;;;;;;4770527;30;20504;-75
2021/04/11 04:12:48;;;;;;;3.33;2.20;;;7.60;99.90;;;;;;4771345;30;20069;-75
2021/04/11 04:15:39;;;;;;;5.95;2.97;;;7.60;99.90;;;;;;4771341;30;20479;-74
2021/04/11 04:18:35;;;;;;;5.30;3.70;;;7.60;99.90;;;;;;4756112;30;20416;-75
2021/04/11 04:21:28;;;;;;;7.25;4.32;;;7.60;99.90;;;;;;4756271;30;20051;-75
2021/04/11 04:24:14;;;;;;;5.70;3.60;;;7.60;99.90;;;;;;4770388;30;20059;-75
2021/04/11 04:27:01;;;;;;;6.63;3.42;;;7.60;99.90;;;;;;4756035;30;20059;-75
2021/04/11 04:30:08;;;;;;;5.18;3.00;;;7.60;99.90;;;;;;4770021;30;20040;-75
2021/04/11 04:33:07;;;;;;;5.38;3.00;;;7.60;99.90;;;;;;4770741;30;20542;-74
2021/04/11 04:35:52;;;;;;;4.18;3.03;;;7.60;99.90;;;;;;4755232;30;20439;-75
2021/04/11 04:38:30;;;;;;;4.72;2.50;;;7.60;99.90;;;;;;4769877;30;20603;-75
2021/04/11 04:41:28;;;;;;;4.57;2.60;;;7.60;99.90;;;;;;4770470;30;20062;-76
2021/04/11 04:44:13;;;;;;;6.15;2.67;;;7.60;99.90;;;;;;4755516;30;20052;-76
2021/04/11 04:47:17;;;;;;;6.05;2.83;;;7.70;99.90;;;;;;4771012;30;20113;-74
2021/04/11 04:50:07;;;;;;;4.00;2.97;;;7.70;99.90;;;;;;4754870;30;20109;-75
2021/04/11 04:52:49;;;;;;;4.15;3.55;;;7.70;99.90;;;;;;4755499;30;20123;-75
2021/04/11 04:55:24;;;;;;;6.97;3.30;;;7.70;99.90;;;;;;4755545;30;20143;-76
2021/04/11 04:58:00;;;;;;;4.60;4.03;;;7.70;99.90;;;;;;4769402;30;20474;-77
2021/04/11 05:00:36;;;;;;;5.22;3.47;;;7.70;99.90;;;;;;4769596;30;20179;-79
2021/04/11 05:03:30;;;;;;;5.07;3.20;;;7.70;99.90;;;;;;4754685;30;20051;-77
2021/04/11 05:06:41;;;;;;;10.43;6.90;;;7.70;99.90;;;;;;4762299;30;20125;-79
2021/04/11 05:09:50;;;;;;;9.05;6.93;;;7.70;99.90;;;;;;4764140;30;20048;-79
2021/04/11 05:13:03;;;;;;;6.68;5.97;;;7.70;99.90;;;;;;4768096;30;20424;-78
2021/04/11 05:15:48;;;;;;;7.15;5.15;;;7.70;99.90;;;;;;4753378;30;20504;-78
2021/04/11 05:18:28;;;;;;;8.98;6.60;;;7.70;99.90;;;;;;4767749;30;20044;-77
2021/04/11 05:21:11;;;;;;;11.75;5.55;;;7.70;99.90;;;;;;4753518;30;20597;-79
2021/04/11 05:24:03;;;;;;;6.32;5.20;;;7.70;99.90;;;;;;4753504;30;20055;-78
2021/04/11 05:26:44;;;;;;;8.18;6.18;;;7.80;99.90;;;;;;4753925;30;20058;-79
2021/04/11 05:29:28;;;;;;;6.85;5.75;;;7.90;99.90;;;;;;4738250;30;20056;-78
2021/04/11 05:32:00;;;;;;;8.20;5.85;;;7.90;99.90;;;;;;4736673;30;20054;-78
2021/04/11 05:34:32;;;;;;;7.57;5.78;;;8.00;99.90;;;;;;4736582;30;20051;-79
2021/04/11 05:37:22;;;;;;;12.95;6.03;;;8.00;99.90;;;;;;4736225;30;20143;-78
2021/04/11 05:40:19;;;;;;;6.45;4.53;;;8.00;99.90;;;;;;4736292;30;20048;-77
2021/04/11 05:42:55;;;;;;;4.72;4.20;;;8.10;99.90;;;;;;4735942;30;20103;-77
2021/04/11 05:45:36;;;;;;;4.85;3.53;;;8.10;99.90;;;;;;4736448;30;20052;-78
2021/04/11 05:48:24;;;;;;;6.22;3.22;;;8.10;99.90;;;;;;4749672;30;20059;-78
2021/04/11 05:51:04;;;;;;;3.95;2.67;;;8.20;99.90;;;;;;4735550;30;20143;-77
2021/04/11 05:53:42;;;;;;;3.97;2.50;;;8.30;99.90;;;;;;4749837;30;20079;-78
2021/04/11 05:56:22;;;;;;;6.30;5.03;;;8.30;99.90;;;;;;4750373;30;20483;-79
2021/04/11 05:58:57;;;;;;;25.95;10.43;;;8.40;99.90;;;;;;4752697;30;20097;-79
2021/04/11 06:04:41;;;;;;;16.10;8.35;;;8.40;99.90;;;;;;4736799;30;20509;-79
2021/04/11 06:07:23;;;;;;;10.05;7.57;;;8.50;99.90;;;;;;4724315;30;20044;-79
2021/04/11 06:10:09;;;;;;;11.68;6.88;;;8.50;99.90;;;;;;4738448;30;20048;-79
2021/04/11 06:12:48;;;;;;;11.00;7.72;;;8.50;99.90;;;;;;4725312;30;20084;-78
2021/04/11 06:15:30;;;;;;;13.77;11.10;;;8.60;99.90;;;;;;4706089;30;20543;-79
2021/04/11 06:18:05;;;;;;;10.35;8.50;;;8.60;99.90;;;;;;4720371;30;20044;-79
2021/04/11 06:20:38;;;;;;;13.15;7.50;;;8.70;99.90;;;;;;4705929;30;20079;-79
2021/04/11 06:23:23;;;;;;;16.33;9.82;;;8.70;99.90;;;;;;4719471;30;20106;-76
2021/04/11 06:26:19;;;;;;;12.27;8.20;;;8.70;99.90;;;;;;4719302;30;20140;-79
2021/04/11 06:29:20;;;;;;;10.13;7.43;;;8.80;99.90;;;;;;4719940;30;20088;-79
2021/04/11 06:31:58;;;;;;;10.40;7.90;;;8.80;99.90;;;;;;4701879;30;20056;-79
2021/04/11 06:34:52;;;;;;;11.85;8.43;;;8.90;99.90;;;;;;4719337;30;20144;-79
2021/04/11 06:37:20;;;;;;;9.35;6.05;;;9.00;99.90;;;;;;4704729;30;20083;-79
2021/04/11 06:39:53;;;;;;;;;;;9.00;99.90;;;;;;4719641;30;20575;-78
2021/04/11 06:42:40;;;;;;;32.25;16.55;;;9.20;99.90;;;;;;4718872;30;19953;-80
2021/04/11 06:45:28;;;;;;;11.68;7.50;;;9.20;99.90;;;;;;4719001;30;20144;-78
2021/04/11 06:48:23;;;;;;;10.85;7.05;;;9.30;99.90;;;;;;4718941;30;20159;-80
2021/04/11 06:51:19;;;;;;;6.82;5.38;;;9.40;99.90;;;;;;4719091;30;20049;-80
2021/04/11 06:54:28;;;;;;;7.13;5.30;;;9.50;99.90;;;;;;4734705;30;20054;-79
2021/04/11 06:57:14;;;;;;;8.63;5.55;;;9.60;99.90;;;;;;4719039;30;20051;-79
2021/04/11 07:00:12;;;;;;;7.30;4.82;;;9.70;99.90;;;;;;4719339;30;20066;-79
2021/04/11 07:03:04;;;;;;;6.10;4.22;;;9.80;99.90;;;;;;4718239;30;20421;-79
2021/04/11 07:06:17;;;;;;;5.25;4.45;;;9.90;99.90;;;;;;4705071;30;20065;-79
2021/04/11 07:09:26;;;;;;;9.10;5.70;;;10.10;99.90;;;;;;4713391;30;20072;-79
2021/04/11 07:12:37;;;;;;;5.68;5.03;;;10.30;99.90;;;;;;4704999;30;20052;-79
2021/04/11 07:15:49;;;;;;;6.00;4.65;;;10.40;99.90;;;;;;4718789;30;20136;-79
2021/04/11 07:18:48;;;;;;;5.63;4.53;;;10.60;99.90;;;;;;4705124;30;20106;-79
2021/04/11 07:21:59;;;;;;;5.50;4.00;;;10.80;99.90;;;;;;4700542;30;20049;-79
2021/04/11 07:24:45;;;;;;;5.55;3.97;;;11.10;99.90;;;;;;4698026;30;20070;-79
2021/04/11 07:27:25;;;;;;;5.65;4.90;;;11.30;99.90;;;;;;4714397;30;20780;-79
2021/04/11 07:30:16;;;;;;;5.30;4.30;;;11.50;99.90;;;;;;4714039;30;20814;-79
2021/04/11 07:33:08;;;;;;;13.15;8.75;;;11.60;99.90;;;;;;4717483;30;20057;-78
2021/04/11 07:35:55;;;;;;;7.05;4.97;;;11.80;99.90;;;;;;4717896;30;20098;-79
2021/04/11 07:38:46;;;;;;;7.80;5.07;;;11.90;99.90;;;;;;4715051;30;20056;-78
2021/04/11 07:41:25;;;;;;;6.40;3.92;;;12.10;99.90;;;;;;4717713;30;20498;-79
2021/04/11 07:44:20;;;;;;;4.65;2.90;;;12.30;99.90;;;;;;4705210;30;20048;-79
2021/04/11 07:47:18;;;;;;;4.75;3.67;;;12.40;99.90;;;;;;4720155;30;20055;-79
2021/04/11 07:50:16;;;;;;;5.25;3.35;;;12.60;99.90;;;;;;4705243;30;20124;-79
2021/04/11 07:53:03;;;;;;;3.58;2.88;;;12.70;99.90;;;;;;4719682;30;20084;-79
2021/04/11 07:55:58;;;;;;;3.83;3.00;;;12.80;99.90;;;;;;4705735;30;20440;-79
2021/04/11 07:58:43;;;;;;;6.53;3.13;;;12.90;99.90;;;;;;4718994;30;20120;-79
2021/04/11 08:01:30;;;;;;;3.45;2.70;;;13.10;99.90;;;;;;4705524;30;20144;-79
2021/04/11 08:04:17;;;;;;;5.53;2.75;;;13.20;99.90;;;;;;4720266;30;20139;-80
2021/04/11 08:07:05;;;;;;;3.15;2.42;;;13.40;99.90;;;;;;4719664;30;20053;-82
2021/04/11 08:09:54;;;;;;;4.18;2.40;;;13.50;99.90;;;;;;4719380;30;20424;-79
2021/04/11 08:13:05;;;;;;;4.07;2.45;;;13.70;99.90;;;;;;4708119;30;20193;-79
2021/04/11 08:15:50;;;;;;;5.65;2.58;;;13.90;99.90;;;;;;4722499;30;20049;-79
2021/04/11 08:18:28;;;;;;;3.33;1.73;;;14.10;99.90;;;;;;4723237;30;20067;-79
2021/04/11 08:21:13;;;;;;;2.55;1.80;;;14.20;99.90;;;;;;4722583;30;20049;-79
2021/04/11 08:24:07;;;;;;;5.97;2.00;;;14.20;99.80;;;;;;4721113;30;20527;-80
2021/04/11 08:27:09;;;;;;;2.30;1.67;;;14.30;99.90;;;;;;4719599;30;20139;-79
2021/04/11 08:30:02;;;;;;;2.88;1.83;;;14.30;99.90;;;;;;4718128;30;20043;-80
2021/04/11 08:32:48;;;;;;;3.45;1.83;;;14.40;98.70;;;;;;4718861;30;20055;-79
2021/04/11 08:35:36;;;;;;;2.85;1.73;;;14.50;98.10;;;;;;4720940;30;20053;-80
2021/04/11 08:38:36;;;;;;;2.53;1.83;;;14.60;98.30;;;;;;4701779;30;20057;-81
2021/04/11 08:41:40;;;;;;;3.08;1.80;;;14.70;97.70;;;;;;4702182;30;20073;-78
2021/04/11 08:44:31;;;;;;;3.03;2.05;;;14.80;97.20;;;;;;4701424;30;20048;-77
2021/04/11 08:47:18;;;;;;;1.92;1.70;;;14.90;96.00;;;;;;4702625;30;20120;-77
2021/04/11 08:49:58;;;;;;;4.05;2.22;;;15.00;94.90;;;;;;4698277;30;20509;-79
2021/04/11 08:52:41;;;;;;;22.95;10.07;;;15.10;93.80;;;;;;4701239;30;20053;-77
2021/04/11 08:55:36;;;;;;;4.35;2.65;;;15.20;93.10;;;;;;4701508;30;20144;-77
2021/04/11 08:58:31;;;;;;;3.38;1.80;;;15.20;92.90;;;;;;4702538;30;20112;-77
2021/04/11 09:01:22;;;;;;;2.45;1.80;;;15.30;92.50;;;;;;4702494;30;20147;-77
2021/04/11 09:04:19;;;;;;;2.35;1.60;;;15.50;91.70;;;;;;4687560;30;20609;-77
2021/04/11 09:07:16;;;;;;;2.08;1.73;;;15.60;85.70;;;;;;4702127;30;20153;-78
2021/04/11 09:10:08;;;;;;;5.82;1.90;;;15.80;90.00;;;;;;4698892;30;20164;-76
2021/04/11 09:12:57;;;;;;;2.78;1.80;;;16.00;87.20;;;;;;4705022;30;20064;-78
2021/04/11 09:15:34;;;;;;;2.47;1.48;;;16.20;82.40;;;;;;4703096;30;20110;-79
2021/04/11 09:18:20;;;;;;;1.92;1.52;;;16.40;79.70;;;;;;4704719;30;20059;-79
2021/04/11 09:20:53;;;;;;;2.40;1.25;;;16.50;77.70;;;;;;4719153;30;20088;-77
2021/04/11 09:23:28;;;;;;;1.73;1.15;;;16.70;73.00;;;;;;4704525;30;20066;-77
2021/04/11 09:26:29;;;;;;;1.48;1.05;;;16.80;73.20;;;;;;4705908;30;20578;-80
2021/04/11 09:29:25;;;;;;;1.63;1.00;;;16.90;66.00;;;;;;4719658;30;20063;-79
2021/04/11 09:32:06;;;;;;;1.63;0.80;;;17.10;63.70;;;;;;4719628;30;20524;-80
2021/04/11 09:34:56;;;;;;;1.55;1.05;;;17.20;59.80;;;;;;4705985;30;20147;-78
2021/04/11 09:37:48;;;;;;;2.58;0.93;;;17.30;59.40;;;;;;4706213;30;20084;-79
2021/04/11 09:40:40;;;;;;;2.40;1.27;;;17.40;59.00;;;;;;4720340;30;20059;-80
2021/04/11 09:43:20;;;;;;;2.15;1.30;;;17.50;60.10;;;;;;4698414;30;20525;-80
2021/04/11 09:46:08;;;;;;;3.35;1.63;;;17.60;62.70;;;;;;4719880;30;20078;-80
2021/04/11 09:48:47;;;;;;;1.43;1.13;;;17.80;61.20;;;;;;4719335;30;20107;-80
2021/04/11 09:51:37;;;;;;;2.45;1.35;;;17.90;59.70;;;;;;4705584;30;20169;-79
2021/04/11 09:54:43;;;;;;;3.60;1.63;;;18.00;60.00;;;;;;4705790;30;20067;-80
2021/04/11 09:57:59;;;;;;;4.13;1.20;;;18.10;58.90;;;;;;4705696;30;20156;-79
2021/04/11 10:00:31;;;;;;;1.73;1.10;;;17.90;55.60;;;;;;4649274;30;20109;-80
2021/04/11 10:03:34;;;;;;;2.50;1.17;;;17.80;57.40;;;;;;4634733;30;20058;-79
2021/04/11 10:06:36;;;;;;;5.88;3.88;;;17.70;57.70;;;;;;4708822;30;20068;-79
2021/04/11 10:09:23;;;;;;;2.13;1.52;;;17.70;58.30;;;;;;4703887;30;20160;-79
2021/04/11 10:12:23;;;;;;;1.60;1.30;;;17.70;57.20;;;;;;4704661;30;20055;-79
2021/04/11 10:15:12;;;;;;;2.03;1.35;;;17.60;56.70;;;;;;4704135;30;20052;-79
2021/04/11 10:18:07;;;;;;;1.33;1.20;;;17.70;56.30;;;;;;4703381;30;20060;-79
2021/04/11 10:21:01;;;;;;;1.67;1.33;;;17.70;56.20;;;;;;4704038;30;20045;-80
2021/04/11 10:23:37;;;;;;;4.28;1.83;;;17.80;56.30;;;;;;4718016;30;20049;-79
2021/04/11 10:26:19;;;;;;;2.25;1.52;;;17.80;56.60;;;;;;4717543;30;20052;-80
2021/04/11 10:28:55;;;;;;;3.22;1.45;;;17.80;55.30;;;;;;4717435;30;20524;-79
2021/04/11 10:31:51;;;;;;;1.92;1.20;;;17.80;55.20;;;;;;4703838;30;20053;-79
2021/04/11 10:34:28;;;;;;;2.40;1.80;;;17.90;55.90;;;;;;4717419;30;20523;-80
2021/04/11 10:37:11;;;;;;;2.63;1.33;;;17.90;56.10;;;;;;4717960;30;20052;-80
2021/04/11 10:39:57;;;;;;;2.60;1.50;;;17.90;55.80;;;;;;4702880;30;20502;-80
2021/04/11 10:42:54;;;;;;;4.65;1.52;;;17.80;55.50;;;;;;4703992;30;20053;-79
2021/04/11 10:45:46;;;;;;;2.50;1.30;;;17.70;56.30;;;;;;4704492;30;20052;-79
2021/04/11 10:48:37;;;;;;;6.28;1.40;;;17.70;55.40;;;;;;4701835;30;20052;-80
2021/04/11 10:51:30;;;;;;;2.78;1.30;;;17.70;56.60;;;;;;4715122;30;20405;-79
2021/04/11 10:54:07;;;;;;;2.28;1.55;;;17.80;56.00;;;;;;4711813;30;20051;-80
2021/04/11 10:57:20;;;;;;;4.53;1.40;;;17.80;54.40;;;;;;4702333;30;20139;-80
2021/04/11 10:59:54;;;;;;;2.00;1.40;;;17.90;54.30;;;;;;4715975;30;20072;-81
2021/04/11 11:02:45;;;;;;;2.47;1.20;;;17.80;54.00;;;;;;4716162;30;20049;-80
2021/04/11 11:05:53;;;;;;;109.47;82.88;;;17.90;55.20;;;;;;4702477;30;20045;-80
2021/04/11 11:08:34;;;;;;;13.77;9.43;;;17.90;54.80;;;;;;4698135;30;20151;-81
2021/04/11 11:11:34;;;;;;;3.25;2.00;;;17.90;55.20;;;;;;4715444;30;20049;-80
2021/04/11 11:14:09;;;;;;;3.38;1.55;;;18.00;55.50;;;;;;4702102;30;20087;-80
2021/04/11 11:16:43;;;;;;;2.70;1.15;;;18.00;53.90;;;;;;4719599;30;20144;-80
2021/04/11 11:19:31;;;;;;;1.40;1.23;;;18.10;54.40;;;;;;4704622;30;20055;-80
2021/04/11 11:22:24;;;;;;;3.78;1.30;;;18.10;54.20;;;;;;4705236;30;20052;-80
2021/04/11 11:25:03;;;;;;;2.78;1.45;;;18.10;53.10;;;;;;4716309;30;20420;-80
2021/04/11 11:27:59;;;;;;;2.60;2.28;;;18.20;53.70;;;;;;4702309;30;20075;-80
2021/04/11 11:31:12;;;;;;;3.90;1.30;;;18.40;52.90;;;;;;4715838;30;20155;-80
2021/04/11 11:33:59;;;;;;;1.95;1.00;;;18.50;53.10;;;;;;4702508;30;20091;-81
2021/04/11 11:36:48;;;;;;;3.22;1.52;;;18.50;53.30;;;;;;4716712;30;20152;-80
2021/04/11 11:39:48;;;;;;;2.22;1.52;;;18.60;53.80;;;;;;4715778;30;20052;-80
2021/04/11 11:42:41;;;;;;;5.72;1.35;;;18.70;53.10;;;;;;4713351;30;20060;-81
2021/04/11 11:45:27;;;;;;;2.58;1.60;;;18.70;51.80;;;;;;4717427;30;20063;-81
2021/04/11 11:48:20;;;;;;;2.15;1.35;;;18.80;52.90;;;;;;4719106;30;20141;-80
2021/04/11 11:50:56;;;;;;;2.00;1.38;;;18.80;53.10;;;;;;4705623;30;20155;-81
2021/04/11 11:53:32;;;;;;;1.55;1.40;;;18.80;53.10;;;;;;4719418;30;20151;-80
2021/04/11 11:56:10;;;;;;;6.03;1.50;;;18.80;53.70;;;;;;4705293;30;20052;-80
2021/04/11 11:59:10;;;;;;;1.38;1.15;;;18.80;53.90;;;;;;4704685;30;20056;-80
2021/04/11 12:01:53;;;;;;;2.58;1.50;;;18.80;53.80;;;;;;4718931;30;20045;-80
2021/04/11 12:04:33;;;;;;;2.03;1.20;;;18.80;52.20;;;;;;4719626;30;20131;-81
2021/04/11 12:07:30;;;;;;;2.42;1.38;;;18.90;54.10;;;;;;4734808;30;20059;-80
2021/04/11 12:10:15;;;;;;;2.28;1.85;;;19.10;52.80;;;;;;4699591;30;20527;-81
2021/04/11 12:13:13;;;;;;;2.40;1.73;;;19.20;51.00;;;;;;4705662;30;20076;-80
2021/04/11 12:15:58;;;;;;;2.70;1.20;;;19.30;51.00;;;;;;4699697;30;20058;-81
2021/04/11 12:18:51;;;;;;;2.53;1.10;;;19.30;50.50;;;;;;4721057;30;20151;-81
2021/04/11 12:21:40;;;;;;;2.20;1.90;;;19.40;50.80;;;;;;4707084;30;20076;-79
2021/04/11 12:24:38;;;;;;;1.27;0.93;;;19.30;51.00;;;;;;4704665;30;20750;-80
2021/04/11 12:27:15;;;;;;;1.50;1.13;;;19.30;51.40;;;;;;4691416;30;20061;-78
2021/04/11 12:29:49;;;;;;;1.98;1.08;;;19.30;51.10;;;;;;4718795;30;20051;-78
2021/04/11 12:32:34;;;;;;;1.42;1.13;;;19.40;49.50;;;;;;4717559;30;20148;-77
2021/04/11 12:35:08;;;;;;;1.27;0.90;;;19.40;50.00;;;;;;4733303;30;20055;-78
2021/04/11 12:37:50;;;;;;;2.85;1.00;;;19.30;49.70;;;;;;4716875;30;20076;-77
2021/04/11 12:40:40;;;;;;;1.42;0.90;;;19.30;52.90;;;;;;4703003;30;20159;-77
2021/04/11 12:43:27;;;;;;;1.17;0.70;;;19.20;49.00;;;;;;4732831;30;20060;-78
2021/04/11 12:46:23;;;;;;;1.27;0.80;;;19.00;49.20;;;;;;4717419;30;20057;-77
2021/04/11 12:49:08;;;;;;;1.60;0.80;;;18.90;49.60;;;;;;4716594;30;20088;-77
2021/04/11 12:51:49;;;;;;;1.35;0.90;;;19.00;49.30;;;;;;4702441;30;20064;-78
2021/04/11 12:54:31;;;;;;;1.00;0.60;;;19.00;50.70;;;;;;4717481;30;20087;-78
2021/04/11 12:57:54;;;;;;;0.90;0.70;;;18.90;49.80;;;;;;4716564;30;20139;-77
2021/04/11 13:00:32;;;;;;;0.80;0.60;;;19.10;49.20;;;;;;4711539;30;20049;-77
2021/04/11 13:03:17;;;;;;;1.52;0.98;;;19.20;49.40;;;;;;4701974;30;20072;-77
2021/04/11 13:05:56;;;;;;;0.82;0.60;;;19.30;49.00;;;;;;4715828;30;20076;-77
2021/04/11 13:08:59;;;;;;;2.72;0.70;;;19.30;47.40;;;;;;4715568;30;20075;-77
2021/04/11 13:11:54;;;;;;;1.35;0.70;;;19.10;48.40;;;;;;4716976;30;20056;-75
2021/04/11 13:14:32;;;;;;;1.88;0.70;;;19.10;47.80;;;;;;4703207;30;20420;-77
2021/04/11 13:17:16;;;;;;;0.80;0.70;;;19.00;48.30;;;;;;4715934;30;20145;-77
2021/04/11 13:19:53;;;;;;;1.65;0.93;;;19.20;48.70;;;;;;4715300;30;20143;-77
2021/04/11 13:22:33;;;;;;;1.65;0.95;;;19.30;48.10;;;;;;4709197;30;20131;-77
2021/04/11 13:25:33;;;;;;;1.52;0.60;;;19.30;47.10;;;;;;4717516;30;20052;-78
2021/04/11 13:28:27;;;;;;;2.08;0.70;;;19.40;48.40;;;;;;4716938;30;20063;-78
2021/04/11 13:31:09;;;;;;;0.35;0.30;;;19.50;49.00;;;;;;4717690;30;20079;-78
2021/04/11 13:33:49;;;;;;;1.20;0.50;;;19.50;45.30;;;;;;4717219;30;20533;-78
2021/04/11 13:36:39;;;;;;;0.55;0.50;;;19.70;47.50;;;;;;4716424;30;20053;-77
2021/04/11 13:39:21;;;;;;;1.05;0.40;;;19.70;45.80;;;;;;4716979;30;20044;-78
2021/04/11 13:42:03;;;;;;;0.52;0.30;;;19.60;44.40;;;;;;4717058;30;20080;-78
2021/04/11 13:44:49;;;;;;;0.63;0.40;;;19.60;44.60;;;;;;4716178;30;20598;-78
2021/04/11 13:47:30;;;;;;;0.60;0.43;;;19.70;44.10;;;;;;4698802;30;20075;-77
2021/04/11 13:50:21;;;;;;;0.98;0.50;;;19.80;46.00;;;;;;4715004;30;20053;-78
2021/04/11 13:52:59;;;;;;;0.75;0.40;;;19.80;47.10;;;;;;4717120;30;20053;-78
2021/04/11 13:55:55;;;;;;;0.73;0.30;;;19.80;44.70;;;;;;4717193;30;20656;-78
2021/04/11 13:58:43;;;;;;;0.63;0.45;;;19.90;43.80;;;;;;4719332;30;20082;-77
2021/04/11 14:01:41;;;;;;;0.43;0.30;;;19.90;43.70;;;;;;4734385;30;20060;-77
2021/04/11 14:04:35;;;;;;;0.68;0.47;;;20.00;45.60;;;;;;4720162;30;20128;-77
2021/04/11 14:07:17;;;;;;;0.95;0.68;;;20.00;46.10;;;;;;4684820;30;20414;-78
2021/04/11 14:09:54;;;;;;;1.08;0.50;;;20.10;45.80;;;;;;4711961;30;20048;-77
2021/04/11 14:12:32;;;;;;;0.50;0.40;;;20.20;46.40;;;;;;4716088;30;20057;-78
2021/04/11 14:15:23;;;;;;;0.68;0.50;;;20.30;45.40;;;;;;4716538;30;20048;-78
2021/04/11 14:18:08;;;;;;;0.40;0.30;;;20.40;45.50;;;;;;4715299;30;20135;-78
2021/04/11 14:20:48;;;;;;;1.00;0.40;;;20.30;45.30;;;;;;4703483;30;20499;-77
2021/04/11 14:24:01;;;;;;;0.50;0.30;;;20.20;46.30;;;;;;4716583;30;20139;-79